TimeEDT,TemperatureF,Dew PointF,Humidity,Sea Level PressureIn,VisibilityMPH,Wind Direction,Wind SpeedMPH,Gust SpeedMPH,PrecipitationIn,Events,Conditions,WindDirDegrees,DateUTC
12:53 AM,73.0,66.9,81,29.90,10.0,SSW,3.5,-,N/A,,Clear,200,2013-05-21 04:53:00
1:53 AM,73.9,66.0,76,29.90,10.0,SSW,3.5,-,N/A,,Partly Cloudy,200,2013-05-21 05:53:00
2:53 AM,73.9,66.0,76,29.91,10.0,SSW,6.9,-,N/A,,Clear,210,2013-05-21 06:53:00
3:53 AM,73.0,66.0,79,29.89,10.0,SSW,5.8,-,N/A,,Clear,210,2013-05-21 07:53:00
4:53 AM,72.0,64.9,78,29.89,10.0,SW,4.6,-,N/A,,Partly Cloudy,220,2013-05-21 08:53:00
5:53 AM,71.1,63.0,75,29.92,10.0,West,6.9,-,0.00,,Scattered Clouds,260,2013-05-21 09:53:00
6:53 AM,64.9,60.1,84,29.90,10.0,Calm,Calm,-,N/A,,Clear,0,2013-05-21 10:53:00
7:53 AM,71.1,62.1,73,29.92,10.0,SSW,4.6,-,N/A,,Clear,210,2013-05-21 11:53:00
8:53 AM,72.0,62.1,71,29.94,10.0,SW,5.8,-,N/A,,Clear,230,2013-05-21 12:53:00
9:53 AM,73.0,63.0,71,29.94,10.0,Variable,3.5,-,0.00,,Partly Cloudy,0,2013-05-21 13:53:00
10:53 AM,75.0,63.0,66,29.88,10.0,Variable,3.5,-,N/A,,Clear,0,2013-05-21 14:53:00
11:53 AM,81.0,64.0,56,29.88,10.0,South,4.6,-,N/A,,Clear,170,2013-05-21 15:53:00
12:53 PM,82.9,62.1,49,29.87,10.0,SSW,11.5,21.9,N/A,,Clear,210,2013-05-21 16:53:00
1:53 PM,84.0,63.0,49,29.86,10.0,SW,12.7,21.9,N/A,,Clear,220,2013-05-21 17:53:00
2:53 PM,84.9,64.9,51,29.86,10.0,SW,12.7,21.9,N/A,,Clear,220,2013-05-21 18:53:00
3:53 PM,82.9,64.0,53,29.86,10.0,SW,9.2,20.7,N/A,,Clear,220,2013-05-21 19:53:00
4:53 PM,84.0,63.0,49,29.85,10.0,WSW,8.1,-,N/A,,Clear,240,2013-05-21 20:53:00
5:53 PM,84.0,64.0,51,29.83,10.0,WSW,9.2,18.4,N/A,,Clear,240,2013-05-21 21:53:00
6:53 PM,82.9,63.0,51,29.81,10.0,SW,8.1,18.4,N/A,,Partly Cloudy,220,2013-05-21 22:53:00
7:53 PM,80.1,63.0,56,29.81,10.0,SSW,8.1,-,N/A,,Clear,200,2013-05-21 23:53:00
8:53 PM,78.1,63.0,60,29.81,10.0,Variable,5.8,-,N/A,,Clear,0,2013-05-22 00:53:00
9:53 PM,75.0,61.0,62,29.83,10.0,South,3.5,-,N/A,,Clear,190,2013-05-22 01:53:00
10:53 PM,72.0,61.0,68,29.84,10.0,SSW,3.5,-,N/A,,Clear,200,2013-05-22 02:53:00
11:53 PM,70.0,60.1,71,29.85,10.0,Variable,5.8,-,N/A,,Clear,0,2013-05-22 03:53:00